Time;durP1;ratioP1;P1;durP2;ratioP2;P2;SDS_P1;SDS_P2;PMS_P1;PMS_P2;Temp;Humidity;BMP_temperature;BMP_pressure;BME280_temperature;BME280_humidity;BME280_pressure;Samples;Min_cycle;Max_cycle;Signal;HPM_P1;HPM_P2
2023/10/01 00:00:26;;;;;;;31.97;30.57;;;;;;;14.21;100.00;102249.78;4994712;23;21036;-41
2023/10/01 00:02:54;;;;;;;33.20;31.30;;;;;;;14.20;100.00;102246.28;4973948;28;20435;-42
2023/10/01 00:05:24;;;;;;;32.03;30.37;;;;;;;14.19;100.00;102235.69;4974105;28;20481;-41
2023/10/01 00:07:52;;;;;;;34.70;33.30;;;;;;;14.17;100.00;102227.84;4974017;28;20443;-40
2023/10/01 00:10:22;;;;;;;32.03;30.23;;;;;;;14.15;100.00;102219.16;4973322;28;20473;-41
2023/10/01 00:12:53;;;;;;;33.50;31.10;;;;;;;14.14;100.00;102225.53;4973858;28;20442;-43
2023/10/01 00:15:23;;;;;;;32.73;31.20;;;;;;;14.13;100.00;102223.84;4974306;28;20438;-42
2023/10/01 00:17:51;;;;;;;35.27;32.73;;;;;;;14.11;100.00;102220.53;4974149;28;20498;-41
2023/10/01 00:20:23;;;;;;;34.20;32.10;;;;;;;14.11;100.00;102219.69;4973098;28;20812;-42
2023/10/01 00:22:54;;;;;;;33.03;31.60;;;;;;;14.09;100.00;102216.38;4973587;28;20918;-41
2023/10/01 00:25:23;;;;;;;33.77;31.90;;;;;;;14.08;100.00;102220.06;4973678;28;20510;-42
2023/10/01 00:27:52;;;;;;;34.67;33.10;;;;;;;14.07;100.00;102213.88;4973369;28;20431;-41
2023/10/01 00:30:21;;;;;;;34.53;31.90;;;;;;;14.05;100.00;102218.59;4973168;28;20469;-41
2023/10/01 00:32:49;;;;;;;36.43;34.30;;;;;;;14.05;100.00;102225.81;4973554;28;20435;-42
2023/10/01 00:35:18;;;;;;;34.33;32.30;;;;;;;14.04;100.00;102214.22;4973451;28;20441;-42
2023/10/01 00:37:46;;;;;;;36.20;34.30;;;;;;;14.04;100.00;102214.22;4973479;28;20530;-44
2023/10/01 00:40:15;;;;;;;34.33;32.53;;;;;;;14.04;100.00;102216.91;4982737;28;20468;-42
2023/10/01 00:42:42;;;;;;;36.20;33.80;;;;;;;14.04;100.00;102219.59;4992519;28;20573;-41
2023/10/01 00:45:14;;;;;;;35.73;33.70;;;;;;;14.04;100.00;102221.44;4992569;28;20480;-41
2023/10/01 00:47:42;;;;;;;35.30;33.33;;;;;;;14.02;100.00;102227.00;4992361;28;20536;-41
2023/10/01 00:50:12;;;;;;;35.27;33.27;;;;;;;14.03;100.00;102223.31;4992142;28;20497;-41
2023/10/01 00:52:40;;;;;;;35.77;34.07;;;;;;;14.04;100.00;102213.41;4992425;28;20469;-41
2023/10/01 00:55:10;;;;;;;35.00;33.00;;;;;;;14.02;100.00;102216.28;4992436;28;20933;-41
2023/10/01 00:57:39;;;;;;;33.63;32.20;;;;;;;14.03;100.00;102220.63;4992456;28;20445;-40
2023/10/01 01:00:15;;;;;;;34.47;32.77;;;;;;;14.03;100.00;102217.94;4992099;28;20458;-41
2023/10/01 01:02:56;;;;;;;35.70;33.73;;;;;;;14.03;100.00;102211.75;4992441;28;21140;-41
2023/10/01 01:05:34;;;;;;;35.93;33.50;;;;;;;14.03;100.00;102209.06;4992380;28;20474;-41
2023/10/01 01:08:09;;;;;;;37.97;36.17;;;;;;;14.01;100.00;102198.50;4992555;28;20473;-42
2023/10/01 01:10:41;;;;;;;37.03;34.67;;;;;;;14.03;100.00;102207.22;4991861;28;20468;-41
2023/10/01 01:13:16;;;;;;;37.70;35.90;;;;;;;14.04;100.00;102218.75;4992200;28;20508;-41
2023/10/01 01:15:46;;;;;;;40.60;37.83;;;;;;;14.04;100.00;102219.59;4992408;28;20445;-42
2023/10/01 01:18:20;;;;;;;40.80;38.60;;;;;;;14.05;100.00;102201.66;4992538;28;20434;-41
2023/10/01 01:20:57;;;;;;;39.97;37.87;;;;;;;14.07;100.00;102213.03;4991216;28;20466;-41
2023/10/01 01:23:30;;;;;;;37.77;35.90;;;;;;;14.07;100.00;102208.50;4992103;28;20877;-43
2023/10/01 01:25:59;;;;;;;38.43;36.80;;;;;;;14.08;100.00;102209.34;4991902;28;20480;-41
2023/10/01 01:28:30;;;;;;;39.20;36.97;;;;;;;14.09;100.00;102211.84;4992024;28;20464;-43
2023/10/01 01:30:59;;;;;;;39.43;37.60;;;;;;;14.09;100.00;102214.53;4984109;28;20474;-41
2023/10/01 01:33:31;;;;;;;40.33;38.03;;;;;;;14.11;100.00;102212.50;4992120;28;20464;-41
2023/10/01 01:36:03;;;;;;;43.20;40.63;;;;;;;14.11;100.00;102212.50;4991857;28;20438;-42
2023/10/01 01:38:33;;;;;;;41.73;39.73;;;;;;;14.11;100.00;102208.97;4991635;28;20469;-41
2023/10/01 01:41:01;;;;;;;42.50;40.30;;;;;;;14.14;100.00;102206.75;4991310;28;20848;-41
2023/10/01 01:43:31;;;;;;;41.23;39.23;;;;;;;14.15;100.00;102215.66;4991558;28;20475;-41
2023/10/01 01:46:00;;;;;;;42.93;40.33;;;;;;;14.16;100.00;102215.44;4992045;28;20469;-43
2023/10/01 01:48:31;;;;;;;44.13;41.37;;;;;;;14.19;100.00;102211.56;4992026;28;20446;-44
2023/10/01 01:51:01;;;;;;;42.47;40.30;;;;;;;14.20;100.00;102205.19;4983603;28;20462;-41
2023/10/01 01:53:34;;;;;;;42.67;40.23;;;;;;;14.22;100.00;102209.34;4991510;28;21005;-41
2023/10/01 01:56:08;;;;;;;42.70;40.57;;;;;;;14.25;100.00;102197.41;4991624;28;20524;-45
2023/10/01 01:58:37;;;;;;;43.50;41.40;;;;;;;14.25;100.00;102198.25;4991347;28;20465;-41
2023/10/01 02:01:23;;;;;;;42.53;40.53;;;;;;;14.28;100.00;102199.72;4991060;28;20523;-41
2023/10/01 02:03:52;;;;;;;43.50;41.00;;;;;;;14.29;100.00;102201.38;4991233;28;20442;-41
2023/10/01 02:06:28;;;;;;;43.63;41.33;;;;;;;14.29;100.00;102187.97;4991174;28;20505;-41
2023/10/01 02:08:58;;;;;;;44.70;42.23;;;;;;;14.30;100.00;102198.53;4991379;28;20434;-41
2023/10/01 02:11:32;;;;;;;44.53;42.47;;;;;;;14.29;100.00;102204.06;4971143;28;20462;-41
2023/10/01 02:14:05;;;;;;;44.33;42.00;;;;;;;14.29;100.00;102212.97;4964392;28;20443;-42
2023/10/01 02:16:40;;;;;;;47.70;44.67;;;;;;;14.29;100.00;102215.66;4972266;28;20530;-42
2023/10/01 02:19:22;;;;;;;48.10;45.30;;;;;;;14.30;100.00;102213.81;4971166;28;20876;-41
2023/10/01 02:21:57;;;;;;;45.23;43.27;;;;;;;14.31;100.00;102210.06;4971249;28;20554;-41
2023/10/01 02:24:37;;;;;;;45.77;42.87;;;;;;;14.30;100.00;102209.28;4971632;28;20430;-41
2023/10/01 02:27:09;;;;;;;46.87;44.73;;;;;;;14.31;100.00;102205.56;4964455;28;20517;-41
2023/10/01 02:29:45;;;;;;;46.23;44.40;;;;;;;14.30;100.00;102198.53;4970659;28;21021;-41
2023/10/01 02:32:14;;;;;;;47.33;45.43;;;;;;;14.31;100.00;102199.34;4971847;28;20624;-41
2023/10/01 02:34:43;;;;;;;46.70;44.83;;;;;;;14.31;100.00;102196.66;4971309;28;20446;-41
2023/10/01 02:37:15;;;;;;;48.10;45.70;;;;;;;14.31;100.00;102178.72;4971465;28;20784;-41
2023/10/01 02:39:43;;;;;;;47.10;45.00;;;;;;;14.32;100.00;102171.50;4970745;28;20466;-41
2023/10/01 02:42:21;;;;;;;45.03;43.13;;;;;;;14.32;100.00;102185.78;4970930;28;20549;-41
2023/10/01 02:44:53;;;;;;;46.07;43.80;;;;;;;14.30;100.00;102176.22;4971340;28;20485;-41
2023/10/01 02:47:22;;;;;;;42.60;41.00;;;;;;;14.31;100.00;102180.56;4971826;28;20482;-41
2023/10/01 02:49:52;;;;;;;46.33;44.33;;;;;;;14.25;100.00;102173.25;4970654;28;20512;-42
2023/10/01 02:52:23;;;;;;;41.10;39.33;;;;;;;14.25;100.00;102167.88;4970943;28;20466;-41
2023/10/01 02:54:54;;;;;;;44.13;42.33;;;;;;;14.29;100.00;102163.81;4971187;28;20525;-41
2023/10/01 02:57:27;;;;;;;42.70;40.63;;;;;;;14.26;100.00;102165.03;4971114;28;20435;-41
2023/10/01 03:00:20;;;;;;;40.70;38.93;;;;;;;14.26;100.00;102169.56;4970511;28;20470;-41
2023/10/01 03:02:53;;;;;;;38.50;36.70;;;;;;;14.24;100.00;102171.59;4970934;28;20470;-42
2023/10/01 03:05:28;;;;;;;38.87;37.17;;;;;;;14.24;100.00;102168.94;4971212;28;20446;-42
2023/10/01 03:07:57;;;;;;;42.33;39.50;;;;;;;14.23;100.00;102181.50;4970928;28;20438;-41
2023/10/01 03:10:25;;;;;;;40.47;38.60;;;;;;;14.24;100.00;102171.59;4969912;28;20467;-41
2023/10/01 03:12:58;;;;;;;41.60;39.93;;;;;;;14.24;100.00;102179.66;4970464;28;20449;-43
2023/10/01 03:15:27;;;;;;;42.63;40.73;;;;;;;14.25;100.00;102175.94;4971022;28;20493;-41
2023/10/01 03:17:57;;;;;;;41.30;39.27;;;;;;;14.25;100.00;102174.09;4971145;28;20484;-41
2023/10/01 03:23:24;;;;;;;43.57;41.30;;;;;;;14.22;100.00;102165.56;4970542;28;20533;-41
2023/10/01 03:26:00;;;;;;;43.70;41.73;;;;;;;14.21;100.00;102182.72;4970500;28;20482;-42
2023/10/01 03:28:34;;;;;;;44.83;42.77;;;;;;;14.18;100.00;102183.91;4966466;28;20442;-41
2023/10/01 03:31:06;;;;;;;45.03;43.13;;;;;;;14.16;100.00;102183.25;4962847;28;20561;-42
2023/10/01 03:33:37;;;;;;;43.63;41.73;;;;;;;14.14;100.00;102193.34;4970851;28;20505;-41
2023/10/01 03:36:09;;;;;;;45.17;43.37;;;;;;;14.11;100.00;102171.41;4970633;28;20807;-44
2023/10/01 03:38:38;;;;;;;45.63;43.67;;;;;;;14.12;100.00;102173.09;4970450;28;21383;-42
2023/10/01 03:41:08;;;;;;;47.50;45.40;;;;;;;14.11;100.00;102166.06;4970056;28;21028;-41
2023/10/01 03:43:37;;;;;;;46.07;43.83;;;;;;;14.10;100.00;102162.53;4970523;28;20442;-41
2023/10/01 03:46:19;;;;;;;44.93;42.83;;;;;;;14.10;100.00;102165.22;4970913;28;20818;-41
2023/10/01 03:48:58;;;;;;;46.93;44.83;;;;;;;14.09;100.00;102168.94;4970388;28;20457;-41
2023/10/01 03:51:52;;;;;;;48.47;45.63;;;;;;;14.07;100.00;102143.28;4969990;28;20462;-42
2023/10/01 03:54:19;;;;;;;45.10;42.90;;;;;;;14.01;100.00;102110.00;4964447;28;20784;-41
2023/10/01 03:56:56;;;;;;;45.83;43.07;;;;;;;13.98;100.00;102104.19;4970342;28;20435;-41
2023/10/01 03:59:27;;;;;;;44.37;41.93;;;;;;;13.92;100.00;102097.69;4970138;28;20478;-41
2023/10/01 04:02:02;;;;;;;45.77;43.27;;;;;;;13.90;100.00;102109.63;4970326;28;20573;-42
2023/10/01 04:04:32;;;;;;;44.13;41.63;;;;;;;13.89;100.00;102105.31;4970467;28;20473;-42
2023/10/01 04:07:09;;;;;;;45.97;43.50;;;;;;;13.86;100.00;102101.94;4970151;28;21052;-42
2023/10/01 04:09:46;;;;;;;44.13;42.03;;;;;;;13.84;100.00;102089.75;4974931;28;21059;-41
2023/10/01 04:12:28;;;;;;;43.73;41.73;;;;;;;13.82;100.00;102099.84;4989609;28;20813;-44
2023/10/01 04:15:01;;;;;;;48.17;45.77;;;;;;;13.81;100.00;102088.28;4989571;28;20445;-42
2023/10/01 04:17:29;;;;;;;45.23;42.93;;;;;;;13.81;100.00;102122.31;4990452;28;20470;-43
2023/10/01 04:20:00;;;;;;;45.47;43.00;;;;;;;13.79;100.00;102129.72;4988947;28;20516;-44
2023/10/01 04:22:29;;;;;;;44.30;41.67;;;;;;;13.73;100.00;102139.31;4991506;28;20541;-41
2023/10/01 04:25:10;;;;;;;42.03;39.97;;;;;;;13.71;100.00;102135.13;4993020;28;20445;-41
2023/10/01 04:27:41;;;;;;;43.60;41.50;;;;;;;13.73;100.00;102128.59;4993166;28;20547;-41
2023/10/01 04:30:12;;;;;;;46.30;44.00;;;;;;;13.75;100.00;102131.06;4985296;28;20850;-43
2023/10/01 04:32:42;;;;;;;44.67;42.27;;;;;;;13.76;100.00;102130.91;4993222;28;20521;-43
2023/10/01 04:35:14;;;;;;;44.07;41.87;;;;;;;13.78;100.00;102133.38;4992967;28;21048;-41
2023/10/01 04:37:48;;;;;;;44.87;42.83;;;;;;;13.78;100.00;102134.22;4992700;28;20521;-41
2023/10/01 04:40:39;;;;;;;44.80;42.70;;;;;;;13.80;100.00;102152.78;4992244;28;20856;-41
2023/10/01 04:43:10;;;;;;;45.70;43.40;;;;;;;13.80;100.00;102142.06;4992605;28;20926;-41
2023/10/01 04:45:41;;;;;;;44.87;42.87;;;;;;;13.80;100.00;102137.56;4992932;28;20789;-41
2023/10/01 04:48:15;;;;;;;46.50;44.40;;;;;;;13.79;100.00;102138.59;4985419;28;20565;-41
2023/10/01 04:50:45;;;;;;;48.87;46.47;;;;;;;13.80;100.00;102142.91;4992008;28;20551;-42
2023/10/01 04:53:14;;;;;;;48.60;45.67;;;;;;;13.81;100.00;102146.44;4992357;28;20469;-41
2023/10/01 04:55:42;;;;;;;48.87;46.33;;;;;;;13.80;100.00;102134.03;4992633;28;20449;-42
2023/10/01 04:58:12;;;;;;;50.33;47.87;;;;;;;13.84;100.00;102135.34;4992675;28;20500;-41
2023/10/01 05:00:44;;;;;;;45.57;43.37;;;;;;;13.82;100.00;102127.50;4992135;28;20469;-41
2023/10/01 05:03:14;;;;;;;51.17;48.57;;;;;;;13.82;100.00;102127.50;4992690;28;20472;-42
2023/10/01 05:05:43;;;;;;;47.67;45.57;;;;;;;13.84;100.00;102121.94;4992232;28;20845;-43
2023/10/01 05:08:12;;;;;;;47.23;44.93;;;;;;;13.82;100.00;102119.44;4992151;28;20478;-41
2023/10/01 05:10:51;;;;;;;45.50;43.30;;;;;;;13.83;100.00;102133.66;4991843;28;20565;-41
2023/10/01 05:13:20;;;;;;;47.20;44.63;;;;;;;13.83;100.00;102130.97;4985990;28;20500;-41
2023/10/01 05:15:55;;;;;;;48.13;45.93;;;;;;;13.83;100.00;102136.34;4992243;28;20529;-41
2023/10/01 05:18:26;;;;;;;47.57;45.27;;;;;;;13.83;100.00;102141.72;4992754;28;20430;-41
2023/10/01 05:20:58;;;;;;;49.03;46.53;;;;;;;13.82;100.00;102146.25;4991381;28;20733;-41
2023/10/01 05:23:26;;;;;;;48.47;46.17;;;;;;;13.82;100.00;102148.94;4991987;28;20446;-42
2023/10/01 05:25:56;;;;;;;49.63;47.03;;;;;;;13.82;100.00;102151.63;4991899;28;20675;-41
2023/10/01 05:28:34;;;;;;;49.97;47.23;;;;;;;13.83;100.00;102157.78;4991853;28;20885;-42
2023/10/01 05:31:08;;;;;;;51.70;49.00;;;;;;;13.84;100.00;102159.47;4991678;28;21291;-41
2023/10/01 05:33:36;;;;;;;50.93;48.43;;;;;;;13.86;100.00;102157.44;4991521;28;20448;-41
2023/10/01 05:36:05;;;;;;;52.50;49.70;;;;;;;13.85;100.00;102159.31;4991759;28;20473;-41
2023/10/01 05:38:34;;;;;;;48.67;46.47;;;;;;;13.86;100.00;102160.09;4991862;28;20882;-41
2023/10/01 05:41:04;;;;;;;49.40;47.10;;;;;;;13.86;100.00;102152.91;4991078;28;20473;-40
2023/10/01 05:43:36;;;;;;;51.67;49.03;;;;;;;13.86;100.00;102144.84;4991130;28;20951;-41
2023/10/01 05:46:09;;;;;;;50.17;47.73;;;;;;;13.85;100.00;102145.91;4991897;28;20430;-41
2023/10/01 05:48:39;;;;;;;49.73;47.33;;;;;;;13.86;100.00;102144.03;4991845;28;20482;-41
2023/10/01 05:51:11;;;;;;;52.00;49.57;;;;;;;13.85;100.00;102142.38;4990806;28;20461;-42
2023/10/01 05:53:40;;;;;;;51.97;49.53;;;;;;;13.86;100.00;102142.19;4991450;28;20485;-41
2023/10/01 05:56:10;;;;;;;52.20;49.70;;;;;;;13.86;100.00;102149.38;4991495;28;20438;-41
2023/10/01 05:58:38;;;;;;;50.50;48.20;;;;;;;13.86;100.00;102142.19;4991422;28;21129;-41
2023/10/01 06:01:13;;;;;;;50.63;48.10;;;;;;;13.88;100.00;102146.53;4991002;28;20466;-43
2023/10/01 06:03:42;;;;;;;53.43;50.83;;;;;;;13.93;100.00;102146.81;4994364;23;20554;-41
2023/10/01 06:06:13;;;;;;;51.77;49.07;;;;;;;13.97;100.00;102143.59;4971703;28;20447;-46
2023/10/01 06:08:50;;;;;;;49.17;47.07;;;;;;;14.07;100.00;102154.00;4971994;28;20525;-41
2023/10/01 06:11:18;;;;;;;49.00;46.40;;;;;;;14.15;100.00;102152.09;4933508;28;20586;-42
2023/10/01 06:13:51;;;;;;;49.57;46.80;;;;;;;14.26;100.00;102148.94;4919942;29;20493;-42
2023/10/01 06:16:23;;;;;;;46.47;44.27;;;;;;;14.43;100.00;102146.91;4925872;29;20444;-43
2023/10/01 06:18:56;;;;;;;42.80;40.77;;;;;;;14.54;100.00;102150.97;4916446;29;20442;-41
2023/10/01 06:21:27;;;;;;;42.77;40.57;;;;;;;14.64;100.00;102156.84;4951184;28;20969;-43
2023/10/01 06:23:58;;;;;;;44.37;42.17;;;;;;;14.71;100.00;102155.09;4959935;28;20547;-43
2023/10/01 06:26:33;;;;;;;42.40;40.37;;;;;;;14.78;100.00;102164.06;4956041;28;20450;-41
2023/10/01 06:29:02;;;;;;;42.13;40.10;;;;;;;14.79;100.00;102166.53;4952567;28;20553;-43
2023/10/01 06:31:47;;;;;;;42.27;40.10;;;;;;;14.81;100.00;102167.16;4952306;28;20452;-44
2023/10/01 06:34:19;;;;;;;40.80;38.87;;;;;;;14.82;100.00;102154.56;4951863;28;20549;-43
2023/10/01 06:36:50;;;;;;;40.20;38.20;;;;;;;14.82;100.00;102152.72;4951566;28;20903;-42
2023/10/01 06:39:20;;;;;;;38.60;36.70;;;;;;;14.82;100.00;102143.84;4951725;28;20435;-43
2023/10/01 06:41:49;;;;;;;38.17;36.30;;;;;;;14.82;100.00;102166.16;4967711;28;20447;-40
2023/10/01 06:44:16;;;;;;;39.10;37.17;;;;;;;14.83;100.00;102156.25;4958546;28;20459;-39
2023/10/01 06:46:47;;;;;;;39.00;37.10;;;;;;;14.87;100.00;102154.88;4952472;28;20446;-43
2023/10/01 06:49:18;;;;;;;37.37;35.47;;;;;;;14.88;100.00;102162.72;4963014;28;21028;-41
2023/10/01 06:51:46;;;;;;;37.90;35.83;;;;;;;14.93;100.00;102157.59;4954842;28;20439;-39
2023/10/01 06:54:18;;;;;;;35.57;33.60;;;;;;;14.99;100.00;102163.25;4971062;28;20462;-43
2023/10/01 06:56:47;;;;;;;37.60;35.50;;;;;;;14.99;100.00;102172.13;4967634;28;20522;-43
2023/10/01 06:59:14;;;;;;;35.73;33.83;;;;;;;15.04;100.00;102161.66;4953384;28;21024;-41
2023/10/01 07:01:46;;;;;;;34.53;32.80;;;;;;;15.10;100.00;102158.19;4970979;28;20439;-41
2023/10/01 07:04:17;;;;;;;34.43;32.77;;;;;;;15.17;100.00;102144.81;4963270;28;20973;-39
2023/10/01 07:06:50;;;;;;;35.37;33.40;;;;;;;15.26;100.00;102157.91;4962956;28;20812;-39
2023/10/01 07:09:27;;;;;;;34.63;32.83;;;;;;;15.30;100.00;102153.00;4938120;28;20471;-43
2023/10/01 07:11:59;;;;;;;33.43;31.60;;;;;;;15.37;100.00;102154.72;4958064;28;20934;-40
2023/10/01 07:14:31;;;;;;;36.53;34.40;;;;;;;15.39;100.00;102157.19;4967074;28;20483;-40
2023/10/01 07:17:00;;;;;;;35.60;33.47;;;;;;;15.41;100.00;102157.88;4952793;28;20482;-40
2023/10/01 07:19:30;;;;;;;34.40;32.60;;;;;;;15.44;100.00;102154.78;4952748;28;20468;-41
2023/10/01 07:21:58;;;;;;;36.60;34.67;;;;;;;15.44;100.00;102155.59;4952793;28;20476;-42
2023/10/01 07:24:29;;;;;;;37.90;35.80;;;;;;;15.44;100.00;102154.78;4953149;28;20840;-44
2023/10/01 07:27:03;;;;;;;38.37;36.17;;;;;;;15.44;100.00;102160.97;4960178;28;20969;-41
2023/10/01 07:29:33;;;;;;;36.40;34.13;;;;;;;15.42;100.00;102163.03;4957715;28;20463;-43
2023/10/01 07:32:07;;;;;;;37.70;35.87;;;;;;;15.39;100.00;102167.97;4954453;28;20440;-40
2023/10/01 07:34:39;;;;;;;35.67;33.83;;;;;;;15.37;100.00;102170.84;4953141;28;20483;-46
2023/10/01 07:37:07;;;;;;;36.50;34.30;;;;;;;15.30;100.00;102172.63;4960739;28;20783;-42
2023/10/01 07:39:36;;;;;;;38.10;36.10;;;;;;;15.23;100.00;102173.63;4952170;28;20471;-41
2023/10/01 07:42:05;;;;;;;39.30;36.77;;;;;;;15.23;100.00;102160.97;4952473;28;20805;-43
2023/10/01 07:44:35;;;;;;;41.23;39.20;;;;;;;15.17;100.00;102155.56;4952836;28;20945;-43
2023/10/01 07:47:03;;;;;;;38.60;36.63;;;;;;;15.13;100.00;102155.13;4952477;28;20450;-41
2023/10/01 07:49:46;;;;;;;39.80;38.00;;;;;;;15.14;100.00;102161.34;4952144;28;20510;-43
2023/10/01 07:52:20;;;;;;;40.33;37.80;;;;;;;15.11;100.00;102149.13;4963251;28;20516;-44
2023/10/01 07:54:49;;;;;;;39.13;36.73;;;;;;;15.12;100.00;102152.63;4956331;28;20531;-42
2023/10/01 07:57:23;;;;;;;40.00;37.70;;;;;;;15.08;100.00;102160.25;4964572;28;20504;-40
2023/10/01 07:59:53;;;;;;;39.97;37.83;;;;;;;15.07;100.00;102166.63;4972337;28;20466;-38
2023/10/01 08:02:21;;;;;;;38.57;36.17;;;;;;;15.11;100.00;102162.56;4967273;28;20445;-42
2023/10/01 08:04:58;;;;;;;38.40;36.50;;;;;;;15.15;100.00;102166.50;4968957;28;20442;-40
2023/10/01 08:07:30;;;;;;;39.30;37.17;;;;;;;15.18;100.00;102167.97;4963139;28;20446;-42
2023/10/01 08:10:04;;;;;;;39.60;37.33;;;;;;;15.23;100.00;102179.00;4963838;28;20474;-40
2023/10/01 08:15:29;;;;;;;38.87;36.10;;;;;;;15.41;100.00;102174.00;4965381;28;20434;-40
2023/10/01 08:18:19;;;;;;;35.27;33.67;;;;;;;15.52;100.00;102178.03;4973430;28;20446;-41
2023/10/01 08:20:57;;;;;;;38.60;36.70;;;;;;;15.54;100.00;102176.81;4972925;28;21032;-40
2023/10/01 08:23:27;;;;;;;39.10;37.30;;;;;;;15.55;100.00;102175.78;4971849;28;20462;-39
2023/10/01 08:25:55;;;;;;;41.17;38.83;;;;;;;15.59;100.00;102166.28;4972874;28;20950;-42
2023/10/01 08:28:29;;;;;;;40.53;38.20;;;;;;;15.64;100.00;102161.19;4966256;28;20449;-39
2023/10/01 08:31:01;;;;;;;41.30;38.60;;;;;;;15.72;100.00;102165.56;4967299;28;20993;-39
2023/10/01 08:33:42;;;;;;;39.17;37.03;;;;;;;15.82;100.00;102164.22;4966466;28;20498;-40
2023/10/01 08:36:15;;;;;;;38.60;36.33;;;;;;;15.98;100.00;102166.56;4962641;28;20518;-44
2023/10/01 08:38:47;;;;;;;36.77;34.77;;;;;;;16.19;100.00;102162.97;4964782;28;20508;-41
2023/10/01 08:41:32;;;;;;;36.93;34.50;;;;;;;16.36;100.00;102161.63;4966248;28;20446;-42
2023/10/01 08:44:10;;;;;;;38.20;36.30;;;;;;;16.49;100.00;102166.22;4961943;28;21285;-43
2023/10/01 08:46:41;;;;;;;38.80;36.80;;;;;;;16.64;100.00;102161.53;4959350;28;20443;-43
2023/10/01 08:49:23;;;;;;;37.67;35.40;;;;;;;16.74;100.00;102158.47;4961377;28;21010;-40
2023/10/01 08:52:17;;;;;;;36.57;34.53;;;;;;;16.77;100.00;102156.22;4958103;28;20652;-39
2023/10/01 08:54:45;;;;;;;37.93;35.53;;;;;;;16.81;100.00;102159.34;4961520;28;20541;-40
2023/10/01 08:57:17;;;;;;;39.10;36.40;;;;;;;16.80;100.00;102154.97;4969614;28;20447;-40
2023/10/01 08:59:45;;;;;;;40.50;37.80;;;;;;;16.87;100.00;102150.44;4971829;28;20821;-39
2023/10/01 09:02:16;;;;;;;40.00;37.63;;;;;;;17.05;100.00;102143.41;4962880;28;20439;-39
2023/10/01 09:04:46;;;;;;;38.50;36.27;;;;;;;17.30;100.00;102145.50;4972327;28;20497;-40
2023/10/01 09:07:24;;;;;;;37.03;34.90;;;;;;;17.65;100.00;102141.59;4970776;28;20549;-44
2023/10/01 09:10:07;;;;;;;37.93;35.83;;;;;;;17.91;100.00;102141.56;4965926;28;20850;-39
2023/10/01 09:12:45;;;;;;;38.80;36.20;;;;;;;18.11;100.00;102141.50;4963432;28;20538;-39
2023/10/01 09:15:27;;;;;;;41.33;38.80;;;;;;;18.13;100.00;102150.22;4970041;28;20966;-40
2023/10/01 09:17:58;;;;;;;39.43;37.10;;;;;;;18.13;100.00;102134.84;4971125;28;20501;-38
2023/10/01 09:21:03;;;;;;;38.60;36.13;;;;;;;18.23;100.00;102121.72;4967148;28;20471;-40
2023/10/01 09:23:54;;;;;;;42.17;39.33;;;;;;;18.36;100.00;102112.75;4958123;28;20462;-42
2023/10/01 09:26:42;;;;;;;40.57;38.13;;;;;;;18.42;100.00;102102.97;4965089;28;20447;-42
2023/10/01 09:29:21;;;;;;;40.17;37.83;;;;;;;18.30;100.00;102099.28;4969668;28;20485;-41
2023/10/01 09:31:54;;;;;;;40.93;38.27;;;;;;;18.38;100.00;102107.13;4973354;28;20489;-41
2023/10/01 09:34:46;;;;;;;40.63;38.40;;;;;;;18.35;100.00;102099.44;4962250;28;20459;-39
2023/10/01 09:37:33;;;;;;;41.00;38.70;;;;;;;18.41;100.00;102096.72;4954320;28;20535;-42
2023/10/01 09:40:12;;;;;;;43.00;39.87;;;;;;;18.52;100.00;102100.63;4953738;28;20463;-38
2023/10/01 09:42:45;;;;;;;41.03;38.33;;;;;;;18.67;100.00;102106.56;4953908;28;20558;-41
2023/10/01 09:45:26;;;;;;;42.13;38.83;;;;;;;18.74;100.00;102110.09;4954396;28;20439;-42
2023/10/01 09:48:28;;;;;;;40.90;38.80;;;;;;;18.72;100.00;102102.22;4954750;28;20443;-46
2023/10/01 09:51:07;;;;;;;43.83;41.00;;;;;;;18.57;100.00;102106.25;4953553;28;20483;-38
2023/10/01 09:53:50;;;;;;;41.77;39.13;;;;;;;18.45;100.00;102102.53;4954531;28;20966;-40
2023/10/01 09:56:26;;;;;;;42.87;40.10;;;;;;;18.36;100.00;102103.81;4954220;28;20463;-41
2023/10/01 09:59:01;;;;;;;40.57;38.00;;;;;;;18.27;100.00;102105.09;4953947;28;20458;-44
2023/10/01 10:01:31;;;;;;;40.40;37.97;;;;;;;18.21;100.00;102104.09;4966205;28;20892;-41
2023/10/01 10:04:01;;;;;;;42.57;39.40;;;;;;;18.05;100.00;102107.25;4972904;28;20462;-41
2023/10/01 10:06:31;;;;;;;43.40;40.43;;;;;;;17.95;100.00;102107.69;4954453;28;20439;-40
2023/10/01 10:09:05;;;;;;;40.90;37.97;;;;;;;17.95;100.00;102098.78;4961487;28;20847;-40
2023/10/01 10:11:36;;;;;;;41.00;38.43;;;;;;;18.04;100.00;102098.31;4960614;28;20458;-42
2023/10/01 10:14:44;;;;;;;41.53;39.03;;;;;;;18.24;100.00;102096.41;4953582;28;20514;-40
2023/10/01 10:17:25;;;;;;;41.73;38.97;;;;;;;18.32;100.00;102099.88;4969695;28;20518;-40
2023/10/01 10:20:15;;;;;;;39.63;37.07;;;;;;;18.39;100.00;102106.94;4953260;28;21009;-39
2023/10/01 10:23:29;;;;;;;40.90;38.00;;;;;;;18.45;100.00;102106.06;4969233;28;20464;-40
2023/10/01 10:26:13;;;;;;;38.80;36.40;;;;;;;18.60;100.00;102103.94;4969494;28;20442;-41
2023/10/01 10:28:54;;;;;;;40.83;38.13;;;;;;;18.67;100.00;102099.31;4966976;28;20829;-40
2023/10/01 10:31:29;;;;;;;42.30;39.70;;;;;;;18.69;100.00;102099.09;4953452;28;20536;-41
2023/10/01 10:34:25;;;;;;;42.77;39.90;;;;;;;18.59;100.00;102104.97;4953507;28;21010;-38
2023/10/01 10:36:58;;;;;;;42.10;39.40;;;;;;;18.63;100.00;102105.38;4953468;28;20488;-40
2023/10/01 10:40:12;;;;;;;41.17;38.17;;;;;;;18.64;100.00;102105.13;4964699;28;20866;-40
2023/10/01 10:42:42;;;;;;;41.93;38.63;;;;;;;18.64;100.00;102104.31;4966379;28;20462;-43
2023/10/01 10:45:27;;;;;;;41.70;38.70;;;;;;;18.62;100.00;102119.91;4972463;28;20489;-39
2023/10/01 10:48:02;;;;;;;45.13;41.40;;;;;;;18.36;100.00;102114.63;4965207;28;20444;-39
2023/10/01 10:50:45;;;;;;;43.90;40.53;;;;;;;18.17;100.00;102110.94;4952961;28;20958;-39
2023/10/01 10:53:15;;;;;;;43.80;40.53;;;;;;;18.17;100.00;102108.25;4952395;28;21041;-41
2023/10/01 10:56:04;;;;;;;43.70;40.87;;;;;;;18.18;100.00;102105.34;4953119;28;20889;-40
2023/10/01 10:58:37;;;;;;;43.20;40.60;;;;;;;18.21;100.00;102107.63;4964914;28;20454;-41
2023/10/01 11:01:16;;;;;;;42.63;38.87;;;;;;;18.05;100.00;102097.28;4963890;28;20435;-41
2023/10/01 11:03:48;;;;;;;42.77;39.87;;;;;;;18.04;100.00;102095.63;4953187;28;20467;-47
2023/10/01 11:06:19;;;;;;;46.10;42.63;;;;;;;17.99;100.00;102095.44;4952743;28;20444;-41
2023/10/01 11:08:51;;;;;;;42.70;39.67;;;;;;;17.91;100.00;102114.56;4952464;28;21011;-46
2023/10/01 11:11:24;;;;;;;43.07;40.23;;;;;;;17.80;100.00;102106.31;4952307;28;20479;-42
2023/10/01 11:14:15;;;;;;;44.13;41.00;;;;;;;17.80;100.00;102104.41;4952741;28;20538;-43
2023/10/01 11:16:46;;;;;;;43.50;40.50;;;;;;;17.90;100.00;102099.41;4960623;28;20497;-42
2023/10/01 11:19:16;;;;;;;43.23;40.50;;;;;;;18.06;100.00;102098.13;4952485;28;20554;-41
2023/10/01 11:21:58;;;;;;;46.00;43.00;;;;;;;18.15;100.00;102102.25;4952301;28;20467;-41
2023/10/01 11:24:32;;;;;;;44.07;41.03;;;;;;;18.16;100.00;102093.09;4964010;28;20470;-40
2023/10/01 11:27:17;;;;;;;45.83;42.57;;;;;;;18.17;100.00;102087.47;4957367;28;20807;-41
2023/10/01 11:29:59;;;;;;;42.13;39.40;;;;;;;18.31;100.00;102088.25;4965926;28;20476;-43
2023/10/01 11:32:58;;;;;;;39.50;36.80;;;;;;;18.54;100.00;102090.47;4964067;28;20482;-44
2023/10/01 11:35:34;;;;;;;37.30;34.80;;;;;;;18.49;100.00;102085.69;4956350;28;20971;-41
2023/10/01 11:38:08;;;;;;;35.33;33.23;;;;;;;18.70;100.00;102081.81;4956471;28;20511;-40